Time;durP1;ratioP1;P1;durP2;ratioP2;P2;SDS_P1;SDS_P2;PMS_P1;PMS_P2;Temp;Humidity;BMP_temperature;BMP_pressure;BME280_temperature;BME280_humidity;BME280_pressure;Samples;Min_cycle;Max_cycle;Signal;HPM_P1;HPM_P2
2022/01/17 06:00:11;;;;;;;10.13;9.13;;;5.40;97.20;;;;;;1712989;28;20692;-71
2022/01/17 06:01:01;;;;;;;8.77;7.93;;;5.30;97.20;;;;;;1711875;28;20222;-71
2022/01/17 06:01:53;;;;;;;9.60;8.70;;;5.30;97.20;;;;;;1704958;28;20203;-70
2022/01/17 06:02:45;;;;;;;10.00;9.00;;;5.30;97.20;;;;;;1701456;28;20196;-71
2022/01/17 06:03:36;;;;;;;9.40;8.40;;;5.30;97.20;;;;;;1700861;29;20206;-70
2022/01/17 06:04:27;;;;;;;9.37;8.47;;;5.30;97.20;;;;;;1705209;28;20197;-72
2022/01/17 06:05:18;;;;;;;9.95;8.95;;;5.30;97.20;;;;;;1707426;29;20685;-71
2022/01/17 06:06:10;;;;;;;10.03;9.03;;;5.30;97.20;;;;;;1707546;28;20202;-72
2022/01/17 06:07:01;;;;;;;13.10;10.60;;;5.30;97.20;;;;;;1704408;29;20195;-72
2022/01/17 06:07:52;;;;;;;15.07;11.73;;;5.30;97.20;;;;;;1700678;29;20207;-72
2022/01/17 06:08:43;;;;;;;23.08;13.13;;;5.20;97.20;;;;;;1700723;29;20454;-70
2022/01/17 06:09:35;;;;;;;23.83;14.47;;;5.20;97.20;;;;;;1708680;28;20201;-70
2022/01/17 06:10:26;;;;;;;17.10;11.43;;;5.20;97.20;;;;;;1713966;28;20516;-71
2022/01/17 06:11:18;;;;;;;16.13;11.80;;;5.20;97.20;;;;;;1707046;28;20647;-70
2022/01/17 06:12:10;;;;;;;15.25;11.10;;;5.20;97.20;;;;;;1706393;29;20230;-71
2022/01/17 06:13:01;;;;;;;13.18;10.73;;;5.20;97.20;;;;;;1705690;28;20225;-70
2022/01/17 06:13:53;;;;;;;12.20;10.23;;;5.20;97.20;;;;;;1700538;29;20219;-71
2022/01/17 06:14:44;;;;;;;11.85;10.68;;;5.20;97.20;;;;;;1700884;29;20195;-70
2022/01/17 06:15:37;;;;;;;11.25;9.70;;;5.20;97.20;;;;;;1700634;29;20231;-71
2022/01/17 06:16:30;;;;;;;11.15;10.05;;;5.20;97.20;;;;;;1700585;29;20661;-71
2022/01/17 06:17:20;;;;;;;12.02;9.70;;;5.20;97.20;;;;;;1700571;29;20261;-71
2022/01/17 06:18:12;;;;;;;12.03;9.50;;;5.20;97.20;;;;;;1700179;29;20219;-71
2022/01/17 06:19:03;;;;;;;10.23;9.10;;;5.10;97.20;;;;;;1700512;29;20203;-72
2022/01/17 06:19:55;;;;;;;9.90;8.47;;;5.10;97.20;;;;;;1712056;28;20204;-71
2022/01/17 06:20:45;;;;;;;10.57;9.57;;;5.20;97.20;;;;;;1713767;28;20935;-72
2022/01/17 06:21:37;;;;;;;10.50;9.40;;;5.20;97.20;;;;;;1713784;28;20206;-71
2022/01/17 06:22:29;;;;;;;9.52;8.45;;;5.20;97.20;;;;;;1713663;28;20441;-71
2022/01/17 06:23:21;;;;;;;9.85;8.85;;;5.20;97.20;;;;;;1713914;28;20233;-71
2022/01/17 06:24:12;;;;;;;9.02;8.13;;;5.20;97.20;;;;;;1713845;28;20299;-71
2022/01/17 06:25:04;;;;;;;9.05;8.15;;;5.20;97.20;;;;;;1713852;28;20677;-71
2022/01/17 06:25:55;;;;;;;10.77;8.30;;;5.20;97.20;;;;;;1713914;28;20632;-71
2022/01/17 06:26:46;;;;;;;7.90;7.00;;;5.10;97.20;;;;;;1713869;28;20210;-70
2022/01/17 06:27:38;;;;;;;8.57;7.77;;;5.10;97.20;;;;;;1713605;28;20198;-71
2022/01/17 06:28:28;;;;;;;9.18;8.23;;;5.10;97.20;;;;;;1713009;28;20213;-70
2022/01/17 06:29:20;;;;;;;9.20;8.00;;;5.10;97.20;;;;;;1707054;29;20198;-71
2022/01/17 06:30:13;;;;;;;7.50;6.80;;;5.10;97.20;;;;;;1705805;29;20210;-70
2022/01/17 06:31:06;;;;;;;8.55;7.07;;;5.10;97.20;;;;;;1700579;29;20234;-70
2022/01/17 06:31:57;;;;;;;10.02;7.78;;;5.10;97.20;;;;;;1700551;29;20210;-71
2022/01/17 06:32:49;;;;;;;8.30;7.40;;;5.10;97.20;;;;;;1700571;29;20231;-71
2022/01/17 06:33:39;;;;;;;8.20;7.40;;;5.10;97.20;;;;;;1700462;29;20552;-71
2022/01/17 06:34:31;;;;;;;8.50;7.47;;;5.20;97.20;;;;;;1702501;28;20300;-70
2022/01/17 06:35:22;;;;;;;8.00;7.15;;;5.20;97.20;;;;;;1707248;29;20233;-71
2022/01/17 06:36:14;;;;;;;8.20;7.20;;;5.20;97.20;;;;;;1707164;28;20202;-71
2022/01/17 06:37:04;;;;;;;8.45;7.55;;;5.20;97.20;;;;;;1707297;29;20215;-70
2022/01/17 06:37:56;;;;;;;7.20;6.50;;;5.20;97.20;;;;;;1707800;29;20722;-71
2022/01/17 06:38:47;;;;;;;8.43;7.63;;;5.20;97.20;;;;;;1708079;29;20234;-70
2022/01/17 06:39:39;;;;;;;8.40;7.60;;;5.20;97.20;;;;;;1708134;29;20213;-70
2022/01/17 06:40:30;;;;;;;8.38;7.57;;;5.20;97.20;;;;;;1707720;29;20453;-70
2022/01/17 06:41:22;;;;;;;8.93;7.35;;;5.20;97.20;;;;;;1708186;29;20206;-71
2022/01/17 06:42:14;;;;;;;8.52;7.63;;;5.20;97.20;;;;;;1708181;29;20596;-71
2022/01/17 06:43:08;;;;;;;7.70;7.00;;;5.30;97.20;;;;;;1708297;29;20218;-70
2022/01/17 06:44:00;;;;;;;7.88;7.15;;;5.30;97.20;;;;;;1708181;29;20215;-70
2022/01/17 06:44:51;;;;;;;8.20;7.15;;;5.30;97.20;;;;;;1708257;29;20226;-70
2022/01/17 06:45:45;;;;;;;8.52;7.72;;;5.30;97.20;;;;;;1706558;29;20190;-70
2022/01/17 06:46:38;;;;;;;8.60;7.65;;;5.30;97.20;;;;;;1708236;29;20301;-70
2022/01/17 06:47:29;;;;;;;8.70;7.78;;;5.30;97.20;;;;;;1708224;28;20202;-70
2022/01/17 06:48:21;;;;;;;7.93;7.03;;;5.40;97.20;;;;;;1707965;28;20294;-70
2022/01/17 06:49:12;;;;;;;8.23;7.32;;;5.40;97.20;;;;;;1708193;29;20302;-70
2022/01/17 06:50:05;;;;;;;7.57;6.78;;;5.40;97.20;;;;;;1708540;28;20289;-70
2022/01/17 06:50:56;;;;;;;8.40;7.57;;;5.40;97.20;;;;;;1708435;28;20702;-70
2022/01/17 06:51:48;;;;;;;7.90;7.10;;;5.40;97.20;;;;;;1708872;28;20543;-70
2022/01/17 06:52:38;;;;;;;8.18;7.05;;;5.40;97.20;;;;;;1708634;29;20214;-70
2022/01/17 06:53:31;;;;;;;8.30;6.80;;;5.40;97.20;;;;;;1708676;29;20202;-70
2022/01/17 06:54:22;;;;;;;7.97;7.05;;;5.40;97.20;;;;;;1708610;29;20461;-70
2022/01/17 06:55:14;;;;;;;8.10;6.90;;;5.30;97.20;;;;;;1708817;28;20677;-70
2022/01/17 06:56:04;;;;;;;8.13;7.40;;;5.30;97.20;;;;;;1708855;29;20468;-70
2022/01/17 06:56:56;;;;;;;7.67;6.97;;;5.30;97.20;;;;;;1708836;28;20289;-72
2022/01/17 06:57:47;;;;;;;8.80;7.90;;;5.30;97.20;;;;;;1708726;28;20689;-70
2022/01/17 06:58:40;;;;;;;7.77;7.07;;;5.30;97.20;;;;;;1708715;28;20613;-71
2022/01/17 06:59:31;;;;;;;8.32;7.35;;;5.30;97.20;;;;;;1708760;28;20206;-70
2022/01/17 07:00:23;;;;;;;9.50;8.40;;;5.30;97.20;;;;;;1708932;28;20198;-70
2022/01/17 07:01:14;;;;;;;8.07;7.28;;;5.30;97.20;;;;;;1709072;28;20202;-71
2022/01/17 07:02:08;;;;;;;8.45;7.63;;;5.30;97.20;;;;;;1706553;28;20261;-70
2022/01/17 07:02:58;;;;;;;7.85;7.15;;;5.30;97.20;;;;;;1707042;28;20610;-71
2022/01/17 07:03:51;;;;;;;8.10;7.30;;;5.30;97.20;;;;;;1706410;28;20224;-71
2022/01/17 07:04:42;;;;;;;8.40;7.60;;;5.30;97.20;;;;;;1706404;28;20199;-71
2022/01/17 07:05:34;;;;;;;9.37;8.47;;;5.30;97.20;;;;;;1708720;28;20190;-71
2022/01/17 07:06:25;;;;;;;9.40;8.40;;;5.30;97.20;;;;;;1708784;28;20216;-70
2022/01/17 07:07:17;;;;;;;8.73;7.88;;;5.30;97.20;;;;;;1710486;28;20202;-71
2022/01/17 07:08:09;;;;;;;7.93;7.13;;;5.40;97.20;;;;;;1708652;28;20199;-71
2022/01/17 07:09:02;;;;;;;8.18;7.47;;;5.30;97.20;;;;;;1702106;29;20615;-70
2022/01/17 07:09:54;;;;;;;8.25;7.40;;;5.40;97.20;;;;;;1707927;28;20598;-70
2022/01/17 07:10:45;;;;;;;8.48;7.68;;;5.30;97.20;;;;;;1714760;28;20253;-71
2022/01/17 07:11:38;;;;;;;7.33;6.60;;;5.30;97.20;;;;;;1714582;28;20201;-70
2022/01/17 07:12:29;;;;;;;8.30;7.50;;;5.30;97.20;;;;;;1711214;28;20218;-71
2022/01/17 07:13:21;;;;;;;8.23;7.43;;;5.30;97.20;;;;;;1713984;28;20297;-72
2022/01/17 07:14:12;;;;;;;7.63;6.93;;;5.30;97.20;;;;;;1710292;28;20229;-70
2022/01/17 07:15:05;;;;;;;7.95;6.90;;;5.30;97.20;;;;;;1714181;28;20200;-71
2022/01/17 07:15:55;;;;;;;9.40;7.50;;;5.30;97.20;;;;;;1715087;28;20680;-71
2022/01/17 07:16:47;;;;;;;7.57;6.87;;;5.30;97.20;;;;;;1712647;28;20571;-71
2022/01/17 07:17:39;;;;;;;8.80;7.90;;;5.30;97.20;;;;;;1709397;28;20447;-72
2022/01/17 07:18:31;;;;;;;8.40;7.60;;;5.30;97.20;;;;;;1706718;28;20196;-71
2022/01/17 07:19:23;;;;;;;9.25;8.25;;;5.30;97.20;;;;;;1708313;28;20222;-71
2022/01/17 07:20:15;;;;;;;9.65;7.50;;;5.30;97.20;;;;;;1708424;28;20206;-71
2022/01/17 07:21:08;;;;;;;8.02;7.22;;;5.40;97.20;;;;;;1708514;28;20201;-71
2022/01/17 07:21:58;;;;;;;9.77;7.80;;;5.40;97.20;;;;;;1708113;28;20222;-70
2022/01/17 07:22:50;;;;;;;11.03;7.97;;;5.40;97.20;;;;;;1708386;28;20195;-71
2022/01/17 07:23:42;;;;;;;7.80;7.00;;;5.40;97.20;;;;;;1708233;28;20198;-71
2022/01/17 07:24:33;;;;;;;9.20;7.63;;;5.40;97.20;;;;;;1708565;29;20242;-71
2022/01/17 07:25:25;;;;;;;7.30;6.43;;;5.40;97.20;;;;;;1708467;29;20205;-70
2022/01/17 07:26:15;;;;;;;7.88;7.05;;;5.50;97.20;;;;;;1707067;29;20238;-71
2022/01/17 07:27:07;;;;;;;10.57;8.67;;;5.40;97.20;;;;;;1708518;29;20213;-71
2022/01/17 07:27:58;;;;;;;9.45;8.55;;;5.40;97.20;;;;;;1708002;29;20237;-71
2022/01/17 07:28:49;;;;;;;8.53;7.73;;;5.50;97.20;;;;;;1705743;28;20202;-70
2022/01/17 07:29:40;;;;;;;7.57;6.88;;;5.40;97.20;;;;;;1702702;28;20246;-71
2022/01/17 07:30:32;;;;;;;6.10;5.60;;;5.40;97.20;;;;;;1703497;28;20199;-70
2022/01/17 07:31:24;;;;;;;7.50;6.10;;;5.40;97.20;;;;;;1702754;28;20245;-70
2022/01/17 07:32:14;;;;;;;7.43;6.68;;;5.40;97.20;;;;;;1710709;28;20198;-71
2022/01/17 07:33:08;;;;;;;7.37;6.37;;;5.40;97.20;;;;;;1710605;28;20199;-70
2022/01/17 07:33:59;;;;;;;7.70;6.93;;;5.40;97.20;;;;;;1710521;28;20271;-70
2022/01/17 07:34:52;;;;;;;7.40;6.70;;;5.40;97.20;;;;;;1714541;28;20202;-70
2022/01/17 07:35:52;;;;;;;7.50;6.80;;;5.40;97.20;;;;;;1714496;28;20240;-70
2022/01/17 07:36:43;;;;;;;7.43;6.72;;;5.40;97.20;;;;;;1701339;29;20290;-70
2022/01/17 07:37:35;;;;;;;7.30;6.60;;;5.30;97.20;;;;;;1700884;29;20222;-71
2022/01/17 07:38:27;;;;;;;7.60;6.90;;;5.40;97.20;;;;;;1700768;29;20298;-70
2022/01/17 07:39:18;;;;;;;7.10;6.40;;;5.40;97.20;;;;;;1700591;29;20218;-70
2022/01/17 07:40:11;;;;;;;7.60;6.50;;;5.40;97.20;;;;;;1701160;29;20195;-70
2022/01/17 07:41:03;;;;;;;8.77;7.05;;;5.40;97.20;;;;;;1701187;29;20195;-70
2022/01/17 07:41:54;;;;;;;8.10;6.68;;;5.40;97.20;;;;;;1701212;29;20607;-71
2022/01/17 07:42:46;;;;;;;7.30;6.30;;;5.40;97.20;;;;;;1701274;29;20206;-70
2022/01/17 07:43:37;;;;;;;7.20;6.45;;;5.40;97.20;;;;;;1701163;29;20486;-71
2022/01/17 07:44:30;;;;;;;8.10;6.85;;;5.30;97.20;;;;;;1701208;29;20205;-70
2022/01/17 07:45:21;;;;;;;8.40;7.60;;;5.30;97.20;;;;;;1701225;29;20270;-71
2022/01/17 07:46:25;;;;;;;8.50;7.60;;;5.30;97.20;;;;;;1701182;29;20258;-70
2022/01/17 07:47:18;;;;;;;7.70;7.00;;;5.30;97.20;;;;;;1701176;29;20459;-70
2022/01/17 07:48:45;;;;;;;6.80;6.20;;;5.30;97.20;;;;;;1702457;28;20199;-70
2022/01/17 07:49:37;;;;;;;8.63;7.68;;;5.30;97.20;;;;;;1711866;28;20214;-70
2022/01/17 07:50:28;;;;;;;7.72;6.93;;;5.30;97.20;;;;;;1707451;29;20693;-71
2022/01/17 07:51:22;;;;;;;9.10;7.70;;;5.30;97.20;;;;;;1707588;28;20727;-70
2022/01/17 07:52:13;;;;;;;8.45;7.55;;;5.30;97.20;;;;;;1707714;29;20234;-70
2022/01/17 07:53:04;;;;;;;8.93;7.35;;;5.30;97.20;;;;;;1707807;28;20202;-71
2022/01/17 07:53:57;;;;;;;7.60;6.90;;;5.30;97.20;;;;;;1707642;29;20225;-71
2022/01/17 07:54:49;;;;;;;7.22;6.40;;;5.30;97.20;;;;;;1706960;28;20942;-71
2022/01/17 07:55:41;;;;;;;7.55;6.75;;;5.30;97.20;;;;;;1707622;29;20198;-71
2022/01/17 07:56:33;;;;;;;7.25;6.55;;;5.30;97.20;;;;;;1707658;28;20210;-70
2022/01/17 07:57:25;;;;;;;7.22;6.47;;;5.30;97.20;;;;;;1707741;28;20213;-71
2022/01/17 07:58:16;;;;;;;7.88;7.18;;;5.30;97.20;;;;;;1707188;29;20205;-70
2022/01/17 07:59:09;;;;;;;8.73;7.83;;;5.30;97.20;;;;;;1707634;29;20198;-70
2022/01/17 08:00:01;;;;;;;8.55;7.65;;;5.30;97.20;;;;;;1707624;29;20438;-71
2022/01/17 08:00:53;;;;;;;8.55;7.72;;;5.30;97.20;;;;;;1701311;28;20231;-71
2022/01/17 08:01:43;;;;;;;9.50;7.00;;;5.30;97.20;;;;;;1701162;29;20242;-70
2022/01/17 08:02:35;;;;;;;7.87;7.07;;;5.30;97.20;;;;;;1701150;29;20218;-72
2022/01/17 08:03:27;;;;;;;8.20;7.40;;;5.30;97.20;;;;;;1701118;29;20775;-70
2022/01/17 08:04:19;;;;;;;8.70;7.38;;;5.30;97.20;;;;;;1700931;29;20706;-70
2022/01/17 08:05:14;;;;;;;8.05;7.25;;;5.20;97.20;;;;;;1700969;29;20239;-70
2022/01/17 08:06:06;;;;;;;7.97;7.15;;;5.20;97.20;;;;;;1701126;29;20577;-70
2022/01/17 08:06:56;;;;;;;7.78;6.97;;;5.20;97.20;;;;;;1700970;29;20288;-70
2022/01/17 08:07:48;;;;;;;8.50;6.33;;;5.20;97.20;;;;;;1700839;29;20296;-70
2022/01/17 08:08:39;;;;;;;9.57;7.85;;;5.30;97.20;;;;;;1700855;29;20447;-70
2022/01/17 08:09:32;;;;;;;7.87;7.17;;;5.30;97.20;;;;;;1701003;29;20207;-71
2022/01/17 08:10:23;;;;;;;6.97;6.28;;;5.30;97.20;;;;;;1701051;29;20455;-70
2022/01/17 08:11:14;;;;;;;6.60;6.00;;;5.20;97.20;;;;;;1701028;29;20310;-70
2022/01/17 08:12:08;;;;;;;6.13;5.53;;;5.30;97.20;;;;;;1700978;29;20572;-70
2022/01/17 08:12:59;;;;;;;6.70;5.38;;;5.20;97.20;;;;;;1701043;29;20199;-70
2022/01/17 08:13:51;;;;;;;6.30;5.70;;;5.20;97.20;;;;;;1700631;29;20262;-71
2022/01/17 08:14:42;;;;;;;6.93;6.20;;;5.20;97.20;;;;;;1702081;29;20226;-71
2022/01/17 08:15:34;;;;;;;7.10;6.50;;;5.20;97.20;;;;;;1700864;29;20203;-71
2022/01/17 08:16:25;;;;;;;8.35;6.28;;;5.20;97.20;;;;;;1701025;29;20203;-70
2022/01/17 08:17:17;;;;;;;7.00;6.30;;;5.20;97.20;;;;;;1701078;29;20258;-70
2022/01/17 08:18:09;;;;;;;6.82;5.07;;;5.20;97.20;;;;;;1700693;29;20203;-71
2022/01/17 08:19:03;;;;;;;6.55;5.50;;;5.30;97.20;;;;;;1700918;29;20659;-70
2022/01/17 08:19:54;;;;;;;6.50;5.68;;;5.30;97.20;;;;;;1700898;29;20246;-70
2022/01/17 08:20:45;;;;;;;6.23;5.63;;;5.20;97.20;;;;;;1701050;29;20207;-71
2022/01/17 08:21:36;;;;;;;6.35;5.75;;;5.30;97.20;;;;;;1700918;29;20214;-71
2022/01/17 08:22:28;;;;;;;6.47;5.73;;;5.30;97.20;;;;;;1701036;29;20214;-71
2022/01/17 08:23:19;;;;;;;6.05;5.47;;;5.30;97.20;;;;;;1700987;29;20674;-71
2022/01/17 08:24:10;;;;;;;6.57;5.97;;;5.30;97.20;;;;;;1700993;29;20574;-71
2022/01/17 08:25:02;;;;;;;6.35;5.75;;;5.30;97.20;;;;;;1700970;29;20199;-70
2022/01/17 08:25:54;;;;;;;6.30;5.55;;;5.30;97.20;;;;;;1700932;29;20667;-70
2022/01/17 08:26:44;;;;;;;6.10;5.50;;;5.30;97.20;;;;;;1701041;29;20207;-70
2022/01/17 08:27:36;;;;;;;6.10;5.50;;;5.30;97.20;;;;;;1700642;29;20209;-71
2022/01/17 08:28:27;;;;;;;6.22;5.70;;;5.30;97.20;;;;;;1700827;29;20451;-71
2022/01/17 08:29:20;;;;;;;5.80;5.20;;;5.30;97.20;;;;;;1702860;29;20299;-70
2022/01/17 08:30:14;;;;;;;6.68;6.03;;;5.30;97.20;;;;;;1700975;29;20212;-70
2022/01/17 08:31:05;;;;;;;6.90;6.20;;;5.30;97.20;;;;;;1705297;29;20281;-70
2022/01/17 08:31:59;;;;;;;6.50;5.90;;;5.30;97.20;;;;;;1707404;29;20667;-70
2022/01/17 08:32:51;;;;;;;6.10;5.50;;;5.30;97.20;;;;;;1707566;29;20208;-70
2022/01/17 08:33:42;;;;;;;6.97;6.28;;;5.30;97.20;;;;;;1707527;29;20323;-70
2022/01/17 08:34:35;;;;;;;6.28;5.68;;;5.40;97.20;;;;;;1707558;29;20570;-70
2022/01/17 08:35:26;;;;;;;6.30;5.70;;;5.40;97.20;;;;;;1707413;29;20541;-70
2022/01/17 08:36:19;;;;;;;7.78;6.25;;;5.40;97.20;;;;;;1707582;28;20194;-71
2022/01/17 08:37:10;;;;;;;7.30;5.80;;;5.40;97.20;;;;;;1707433;29;20246;-71
2022/01/17 08:38:02;;;;;;;6.10;5.40;;;5.40;97.20;;;;;;1707198;28;20198;-71
2022/01/17 08:38:53;;;;;;;7.15;6.45;;;5.40;97.20;;;;;;1707440;29;20584;-70
2022/01/17 08:39:45;;;;;;;7.27;6.57;;;5.40;97.20;;;;;;1707482;29;20603;-71
2022/01/17 08:40:36;;;;;;;6.88;6.18;;;5.40;97.20;;;;;;1707348;29;20206;-71
2022/01/17 08:41:28;;;;;;;6.80;6.20;;;5.40;97.20;;;;;;1707371;29;20582;-71
2022/01/17 08:42:19;;;;;;;6.97;6.30;;;5.40;97.20;;;;;;1707454;29;20247;-70
2022/01/17 08:43:11;;;;;;;6.65;6.05;;;5.40;97.20;;;;;;1707451;29;20237;-71
2022/01/17 08:44:02;;;;;;;7.00;6.15;;;5.40;97.20;;;;;;1707418;29;20261;-71
2022/01/17 08:44:56;;;;;;;7.00;6.30;;;5.40;97.20;;;;;;1705685;28;20680;-70
2022/01/17 08:45:48;;;;;;;6.55;5.85;;;5.40;97.20;;;;;;1707480;29;20214;-70
2022/01/17 08:46:41;;;;;;;7.18;6.50;;;5.40;97.20;;;;;;1707359;28;20198;-70
2022/01/17 08:47:31;;;;;;;6.50;5.90;;;5.40;97.20;;;;;;1707394;29;20603;-71
2022/01/17 08:48:23;;;;;;;8.20;6.57;;;5.40;97.20;;;;;;1707208;28;20211;-71
2022/01/17 08:49:15;;;;;;;6.82;6.22;;;5.40;97.20;;;;;;1706948;29;20233;-71
2022/01/17 08:50:10;;;;;;;7.93;7.10;;;5.40;97.20;;;;;;1707444;29;20680;-71
2022/01/17 08:51:02;;;;;;;6.68;6.07;;;5.40;97.20;;;;;;1707408;29;20210;-70
2022/01/17 08:51:52;;;;;;;7.07;6.35;;;5.40;97.20;;;;;;1707239;29;20258;-71
2022/01/17 08:52:45;;;;;;;7.23;5.70;;;5.40;97.20;;;;;;1707461;29;20209;-70
2022/01/17 08:53:37;;;;;;;6.75;6.13;;;5.40;97.20;;;;;;1707235;29;20209;-70
2022/01/17 08:54:28;;;;;;;6.43;5.82;;;5.50;97.20;;;;;;1707407;29;20215;-71
2022/01/17 08:55:21;;;;;;;7.40;6.60;;;5.50;97.20;;;;;;1707406;29;20203;-70
2022/01/17 08:56:12;;;;;;;6.55;5.95;;;5.50;97.20;;;;;;1707347;29;20248;-71
2022/01/17 08:57:04;;;;;;;6.73;5.97;;;5.50;97.20;;;;;;1707466;29;20249;-70
2022/01/17 08:57:55;;;;;;;6.07;5.53;;;5.50;97.20;;;;;;1707057;28;20450;-70
2022/01/17 08:58:47;;;;;;;6.63;5.93;;;5.60;97.20;;;;;;1707375;28;20221;-71
2022/01/17 08:59:38;;;;;;;6.95;5.95;;;5.60;97.20;;;;;;1706851;28;20214;-71
2022/01/17 09:00:31;;;;;;;6.85;6.25;;;5.60;97.20;;;;;;1707020;29;20249;-70
2022/01/17 09:01:23;;;;;;;5.40;4.90;;;5.70;97.20;;;;;;1706072;28;20205;-71
2022/01/17 09:02:14;;;;;;;6.30;5.45;;;5.70;97.20;;;;;;1707284;28;20670;-70
2022/01/17 09:03:05;;;;;;;6.65;6.05;;;5.80;97.20;;;;;;1707290;29;20210;-70
2022/01/17 09:03:57;;;;;;;6.17;5.57;;;5.90;97.20;;;;;;1707314;29;20226;-70
2022/01/17 09:04:49;;;;;;;5.35;4.85;;;6.00;97.20;;;;;;1707402;29;20438;-71
2022/01/17 09:05:42;;;;;;;6.00;5.40;;;6.00;97.20;;;;;;1707054;29;20253;-71
2022/01/17 09:06:33;;;;;;;6.20;5.45;;;6.10;97.20;;;;;;1707246;28;20207;-70
2022/01/17 09:07:25;;;;;;;6.50;5.90;;;6.20;97.20;;;;;;1707359;28;20281;-71
2022/01/17 09:08:16;;;;;;;5.70;5.20;;;6.30;97.20;;;;;;1707010;28;20226;-71
2022/01/17 09:09:08;;;;;;;6.25;5.65;;;6.30;97.20;;;;;;1707362;29;20281;-71
2022/01/17 09:09:59;;;;;;;5.40;4.90;;;6.40;97.20;;;;;;1707387;29;20205;-70
2022/01/17 09:10:54;;;;;;;6.10;5.50;;;6.30;97.20;;;;;;1707499;29;20190;-71
2022/01/17 09:11:45;;;;;;;6.40;5.80;;;6.30;97.20;;;;;;1707309;29;20321;-71
2022/01/17 09:12:36;;;;;;;6.50;5.87;;;6.30;97.20;;;;;;1707104;29;20206;-71
2022/01/17 09:13:27;;;;;;;6.63;5.90;;;6.30;97.20;;;;;;1707333;29;20629;-70
2022/01/17 09:14:19;;;;;;;6.70;6.00;;;6.30;97.20;;;;;;1707175;28;20230;-70
2022/01/17 09:15:10;;;;;;;7.03;6.03;;;6.20;97.20;;;;;;1707403;29;20462;-71
2022/01/17 09:16:02;;;;;;;7.43;6.72;;;6.30;97.20;;;;;;1707295;29;20206;-70
2022/01/17 09:16:54;;;;;;;7.25;5.80;;;6.30;97.20;;;;;;1707295;29;20209;-71
2022/01/17 09:17:46;;;;;;;6.40;5.28;;;6.30;97.20;;;;;;1706749;29;20213;-71
2022/01/17 09:18:37;;;;;;;5.90;5.20;;;6.30;97.20;;;;;;1705830;29;20226;-71
2022/01/17 09:19:29;;;;;;;7.60;5.78;;;6.40;97.20;;;;;;1707255;29;20210;-70
2022/01/17 09:20:21;;;;;;;6.13;5.47;;;6.40;97.20;;;;;;1707216;29;20229;-70
2022/01/17 09:21:14;;;;;;;5.95;5.28;;;6.50;97.20;;;;;;1707267;29;20210;-71
2022/01/17 09:22:06;;;;;;;6.25;5.40;;;6.50;97.20;;;;;;1707433;29;20195;-70
2022/01/17 09:22:58;;;;;;;5.85;5.25;;;6.50;97.20;;;;;;1707195;29;20220;-71
2022/01/17 09:23:50;;;;;;;5.43;4.50;;;6.60;97.20;;;;;;1711034;28;20198;-71
2022/01/17 09:24:42;;;;;;;6.18;4.40;;;6.60;97.20;;;;;;1713933;28;20205;-70
2022/01/17 09:25:34;;;;;;;5.80;4.90;;;6.70;97.20;;;;;;1713847;28;20202;-71
2022/01/17 09:26:27;;;;;;;6.10;5.57;;;6.70;97.20;;;;;;1714116;28;20281;-71
2022/01/17 09:27:18;;;;;;;5.28;4.70;;;6.80;97.20;;;;;;1713917;28;20241;-71
2022/01/17 09:28:10;;;;;;;5.07;4.50;;;6.90;97.20;;;;;;1713600;28;20209;-71
2022/01/17 09:29:00;;;;;;;5.32;4.40;;;6.90;97.20;;;;;;1713794;28;20843;-71
2022/01/17 09:29:53;;;;;;;4.93;4.43;;;7.00;97.20;;;;;;1713778;28;20206;-72
2022/01/17 09:30:43;;;;;;;5.28;4.75;;;7.10;97.20;;;;;;1713920;28;20298;-70
2022/01/17 09:31:35;;;;;;;4.73;4.23;;;7.10;97.20;;;;;;1713829;28;20369;-71
2022/01/17 09:32:26;;;;;;;6.05;5.45;;;7.10;97.20;;;;;;1713921;28;20212;-71
2022/01/17 09:33:18;;;;;;;4.67;4.23;;;7.20;97.20;;;;;;1713807;28;20200;-71
2022/01/17 09:34:09;;;;;;;5.40;4.90;;;7.20;97.20;;;;;;1713715;28;20257;-71
2022/01/17 09:35:01;;;;;;;5.13;4.63;;;7.20;97.20;;;;;;1702982;28;20195;-71
2022/01/17 09:35:52;;;;;;;5.57;5.07;;;7.20;97.20;;;;;;1700640;29;20234;-71
2022/01/17 09:36:44;;;;;;;5.03;4.53;;;7.20;97.20;;;;;;1700600;29;20716;-71
2022/01/17 09:37:36;;;;;;;5.50;4.95;;;7.30;97.20;;;;;;1700340;29;20690;-71
2022/01/17 09:38:28;;;;;;;5.90;4.70;;;7.30;97.20;;;;;;1700603;29;20211;-71
2022/01/17 09:39:20;;;;;;;5.80;5.30;;;7.30;97.20;;;;;;1700564;29;20818;-71
2022/01/17 09:40:11;;;;;;;6.18;5.57;;;7.40;97.20;;;;;;1700581;29;20690;-71
2022/01/17 09:41:04;;;;;;;5.60;5.10;;;7.40;97.20;;;;;;1700502;29;20207;-71
2022/01/17 09:41:55;;;;;;;6.35;5.75;;;7.50;97.20;;;;;;1700517;29;20687;-71
2022/01/17 09:42:47;;;;;;;5.43;4.93;;;7.60;97.20;;;;;;1700688;29;20207;-70
2022/01/17 09:43:38;;;;;;;5.80;4.95;;;7.60;97.20;;;;;;1700502;29;20479;-70
2022/01/17 09:44:30;;;;;;;5.60;5.10;;;7.70;97.20;;;;;;1700506;29;20262;-71
2022/01/17 09:45:22;;;;;;;5.57;4.85;;;7.70;97.20;;;;;;1700655;29;20214;-71
2022/01/17 09:46:15;;;;;;;5.45;4.95;;;7.70;97.20;;;;;;1700559;29;20206;-71
2022/01/17 09:47:10;;;;;;;9.02;5.18;;;7.80;97.20;;;;;;1700593;29;20387;-71
2022/01/17 09:48:05;;;;;;;5.10;4.60;;;7.80;97.20;;;;;;1700265;29;20214;-71
2022/01/17 09:49:02;;;;;;;5.75;5.18;;;7.80;97.20;;;;;;1702577;29;20286;-71
2022/01/17 09:49:55;;;;;;;5.95;5.35;;;7.80;97.20;;;;;;1707272;29;20202;-70
2022/01/17 09:50:58;;;;;;;5.53;5.03;;;7.90;97.20;;;;;;1707265;28;20234;-72
2022/01/17 09:52:15;;;;;;;5.50;4.95;;;7.80;97.20;;;;;;1701565;29;20238;-71
2022/01/17 09:53:06;;;;;;;5.60;5.10;;;7.80;97.20;;;;;;1700638;29;20210;-71
2022/01/17 09:53:59;;;;;;;6.00;5.40;;;7.80;97.20;;;;;;1700713;29;20219;-70
2022/01/17 09:54:51;;;;;;;6.38;5.78;;;7.80;97.20;;;;;;1700559;29;20204;-70
2022/01/17 09:55:43;;;;;;;6.18;5.30;;;7.70;97.20;;;;;;1700521;29;20225;-71
2022/01/17 09:56:35;;;;;;;6.68;5.95;;;7.70;97.20;;;;;;1700466;29;20973;-71
2022/01/17 09:57:28;;;;;;;6.93;5.40;;;7.70;97.20;;;;;;1700648;29;20207;-71
2022/01/17 09:58:20;;;;;;;5.75;5.15;;;7.70;97.20;;;;;;1700290;29;20791;-71
2022/01/17 09:59:11;;;;;;;5.70;5.07;;;7.60;97.20;;;;;;1700463;29;20257;-70
2022/01/17 10:00:03;;;;;;;6.67;6.07;;;7.60;97.20;;;;;;1700517;29;20199;-71
2022/01/17 10:00:54;;;;;;;6.82;5.90;;;7.50;97.20;;;;;;1700615;29;20671;-70
2022/01/17 10:01:46;;;;;;;5.85;4.85;;;7.60;97.20;;;;;;1700542;29;20235;-72
2022/01/17 10:02:37;;;;;;;5.32;4.80;;;7.60;97.20;;;;;;1700575;29;20207;-71
2022/01/17 10:03:29;;;;;;;6.20;5.60;;;7.60;97.20;;;;;;1700660;29;20210;-71
2022/01/17 10:04:19;;;;;;;5.65;5.15;;;7.60;97.20;;;;;;1700455;29;20478;-71
2022/01/17 10:05:14;;;;;;;5.40;4.90;;;7.60;97.20;;;;;;1700467;29;20207;-71
2022/01/17 10:06:04;;;;;;;5.63;5.13;;;7.60;97.20;;;;;;1700821;29;20200;-71
2022/01/17 10:06:59;;;;;;;5.70;4.73;;;7.60;97.20;;;;;;1700475;29;20195;-71
2022/01/17 10:07:56;;;;;;;6.05;5.32;;;7.50;97.20;;;;;;1704667;29;20950;-71
2022/01/17 10:08:48;;;;;;;6.22;5.63;;;7.50;97.20;;;;;;1706970;29;20238;-71
2022/01/17 10:09:43;;;;;;;5.65;5.15;;;7.50;97.20;;;;;;1707066;29;20238;-71
2022/01/17 10:10:37;;;;;;;5.93;5.32;;;7.50;97.20;;;;;;1707028;29;20203;-71
2022/01/17 10:11:29;;;;;;;4.90;4.40;;;7.40;97.20;;;;;;1707872;28;20733;-71
2022/01/17 10:12:19;;;;;;;4.78;4.38;;;7.40;97.20;;;;;;1708303;29;20234;-71
2022/01/17 10:13:13;;;;;;;5.80;5.17;;;7.30;97.20;;;;;;1708327;29;20210;-70
2022/01/17 10:14:24;;;;;;;6.40;5.38;;;7.30;97.20;;;;;;1708167;29;20234;-71
2022/01/17 10:15:22;;;;;;;6.78;5.88;;;7.30;97.20;;;;;;1708302;29;20206;-70
2022/01/17 10:16:15;;;;;;;6.28;5.15;;;7.30;97.20;;;;;;1708333;29;20674;-71
2022/01/17 10:17:09;;;;;;;5.40;4.88;;;7.30;97.20;;;;;;1708345;29;20663;-71
2022/01/17 10:18:00;;;;;;;6.63;6.03;;;7.30;97.20;;;;;;1707759;29;20205;-71
2022/01/17 10:18:57;;;;;;;5.90;5.30;;;7.30;97.20;;;;;;1707555;29;20232;-71
2022/01/17 10:20:00;;;;;;;6.20;5.40;;;7.30;97.20;;;;;;1707671;29;20202;-71
2022/01/17 10:20:55;;;;;;;9.65;5.15;;;7.30;97.20;;;;;;1707683;29;20218;-71
2022/01/17 10:21:50;;;;;;;5.72;5.13;;;7.20;97.20;;;;;;1707679;29;20281;-71
2022/01/17 10:22:51;;;;;;;6.00;5.05;;;7.20;97.20;;;;;;1706761;29;20199;-71
2022/01/17 10:24:16;;;;;;;5.70;5.15;;;7.20;97.20;;;;;;1708500;29;20222;-71
2022/01/17 10:25:21;;;;;;;5.53;4.85;;;7.20;97.20;;;;;;1708249;29;20273;-70
2022/01/17 10:26:33;;;;;;;6.60;5.63;;;7.20;97.20;;;;;;1704169;29;20253;-71
2022/01/17 10:27:55;;;;;;;7.03;5.53;;;7.30;97.20;;;;;;1704671;29;20678;-71
2022/01/17 10:30:39;;;;;;;5.72;5.13;;;7.30;97.20;;;;;;1690202;29;20232;-72
2022/01/17 10:35:14;;;;;;;6.85;6.00;;;7.50;97.20;;;;;;1708373;29;20278;-71
2022/01/17 10:36:06;;;;;;;7.85;6.65;;;7.60;97.20;;;;;;1708232;29;20202;-71
2022/01/17 10:36:57;;;;;;;6.60;5.97;;;7.60;97.20;;;;;;1708004;29;20618;-71
2022/01/17 10:38:15;;;;;;;6.45;5.85;;;7.70;97.20;;;;;;1707668;29;20194;-71
2022/01/17 10:39:06;;;;;;;6.10;5.60;;;7.70;97.20;;;;;;1694164;28;20208;-71
2022/01/17 10:40:01;;;;;;;6.05;5.45;;;7.70;97.20;;;;;;1707404;29;20203;-71
2022/01/17 10:40:57;;;;;;;5.43;4.93;;;7.80;97.20;;;;;;1707900;29;20293;-71
2022/01/17 10:41:48;;;;;;;6.32;5.60;;;7.80;97.20;;;;;;1708179;29;20308;-72
2022/01/17 10:42:42;;;;;;;5.68;5.18;;;7.70;97.20;;;;;;1707967;29;20217;-71